Terminal Aerodrome Forecast
Issued by NWS

Home | Current Version | Previous Version | Graphics & Text | Print | Product List | Glossary On
Versions: 1 2 3 4 5 6 7 8 9 10 11 12 13 14 15 16 17 18 19 20 21 22 23 24 25 26 27 28 29
000
FTUS43 KLOT 220301 AAA
TAFORD
TAF AMD
KORD 220301Z 2203/2306 05010KT P6SM FEW020 OVC250
     FM221200 06008KT P6SM BKN030 OVC060
     FM221700 07013KT P6SM OVC020
     FM230300 12010KT P6SM SCT008 OVC013=

USA.gov is the U.S. government's official web portal to all federal, state and local government web resources and services.